Time;durP1;ratioP1;P1;durP2;ratioP2;P2;SDS_P1;SDS_P2;PMS_P1;PMS_P2;Temp;Humidity;BMP_temperature;BMP_pressure;BME280_temperature;BME280_humidity;BME280_pressure;Samples;Min_cycle;Max_cycle;Signal;HPM_P1;HPM_P2
2023/05/08 00:01:49;;;;;;;4.15;3.40;;;;;;;;;;5042431;28;20044;-60
2023/05/08 00:04:16;;;;;;;6.93;3.55;;;;;;;;;;5047954;28;20044;-60
2023/05/08 00:06:42;;;;;;;9.80;3.83;;;;;;;;;;5041064;28;20232;-60
2023/05/08 00:09:08;;;;;;;4.22;3.75;;;;;;;;;;5044769;28;20064;-60
2023/05/08 00:11:34;;;;;;;5.72;3.53;;;;;;;;;;5035299;28;20042;-60
2023/05/08 00:14:00;;;;;;;6.20;3.70;;;;;;;;;;5035231;28;20077;-60
2023/05/08 00:16:27;;;;;;;9.38;3.95;;;;;;;;;;5034510;28;20117;-60
2023/05/08 00:18:53;;;;;;;5.85;4.00;;;;;;;;;;5040885;28;20033;-60
2023/05/08 00:21:19;;;;;;;6.93;4.55;;;;;;;;;;5040567;28;20052;-60
2023/05/08 00:23:46;;;;;;;4.03;3.67;;;;;;;;;;5037088;28;20045;-60
2023/05/08 00:26:12;;;;;;;4.28;3.67;;;;;;;;;;5037828;28;20048;-60
2023/05/08 00:28:38;;;;;;;4.43;3.97;;;;;;;;;;5036297;28;21443;-60
2023/05/08 00:31:04;;;;;;;6.60;3.88;;;;;;;;;;5042246;28;20032;-60
2023/05/08 00:33:30;;;;;;;4.68;3.85;;;;;;;;;;5041312;28;20093;-60
2023/05/08 00:36:04;;;;;;;5.45;3.90;;;;;;;;;;5035856;28;20488;-60
2023/05/08 00:38:34;;;;;;;6.57;4.30;;;;;;;;;;5044132;28;20044;-60
2023/05/08 00:41:00;;;;;;;4.13;3.72;;;;;;;;;;5036431;28;20045;-59
2023/05/08 00:43:27;;;;;;;4.75;3.80;;;;;;;;;;5027605;28;20521;-60
2023/05/08 00:45:55;;;;;;;6.75;3.70;;;;;;;;;;5034526;28;20029;-58
2023/05/08 00:48:22;;;;;;;7.25;3.70;;;;;;;;;;5040441;28;20142;-59
2023/05/08 00:50:50;;;;;;;5.60;3.20;;;;;;;;;;5036029;28;20033;-59
2023/05/08 00:53:21;;;;;;;5.55;3.45;;;;;;;;;;5039697;28;20045;-60
2023/05/08 00:55:49;;;;;;;3.75;3.25;;;;;;;;;;5037074;28;20522;-60
2023/05/08 00:58:16;;;;;;;7.18;3.70;;;;;;;;;;5038751;28;20049;-60
2023/05/08 01:00:43;;;;;;;5.07;3.80;;;;;;;;;;5041313;28;20402;-60
2023/05/08 01:03:11;;;;;;;4.72;3.70;;;;;;;;;;5041340;28;20033;-60
2023/05/08 01:05:37;;;;;;;5.18;3.65;;;;;;;;;;5043209;28;20045;-60
2023/05/08 01:08:03;;;;;;;6.50;4.20;;;;;;;;;;5042016;28;20049;-60
2023/05/08 01:10:47;;;;;;;6.07;4.10;;;;;;;;;;5037463;28;20033;-60
2023/05/08 01:13:33;;;;;;;5.75;3.80;;;;;;;;;;5036567;28;20048;-60
2023/05/08 01:16:18;;;;;;;6.50;4.25;;;;;;;;;;5041564;28;20026;-60
2023/05/08 01:18:51;;;;;;;8.45;3.90;;;;;;;;;;5037212;28;20033;-60
2023/05/08 01:21:25;;;;;;;5.30;3.88;;;;;;;;;;5039785;28;20033;-60
2023/05/08 01:23:59;;;;;;;5.38;3.90;;;;;;;;;;5040107;28;20029;-60
2023/05/08 01:26:50;;;;;;;6.05;4.65;;;;;;;;;;5041422;28;20505;-59
2023/05/08 01:29:53;;;;;;;6.28;4.47;;;;;;;;;;5041560;28;20629;-60
2023/05/08 01:32:25;;;;;;;7.57;4.55;;;;;;;;;;5038849;28;20048;-59
2023/05/08 01:35:02;;;;;;;8.80;5.03;;;;;;;;;;5037018;28;20060;-60
2023/05/08 01:37:39;;;;;;;5.32;4.50;;;;;;;;;;5037342;28;20032;-60
2023/05/08 01:40:16;;;;;;;9.48;4.40;;;;;;;;;;5036934;28;20045;-60
2023/05/08 01:42:45;;;;;;;6.35;4.30;;;;;;;;;;5039194;28;20028;-60
2023/05/08 01:45:25;;;;;;;8.88;4.65;;;;;;;;;;5044858;28;20057;-59
2023/05/08 01:48:02;;;;;;;7.55;5.22;;;;;;;;;;5044609;28;20380;-60
2023/05/08 01:50:37;;;;;;;8.10;5.82;;;;;;;;;;5041034;28;20036;-60
2023/05/08 01:53:18;;;;;;;9.20;5.90;;;;;;;;;;5036025;28;20061;-60
2023/05/08 01:55:52;;;;;;;9.15;6.00;;;;;;;;;;5039650;28;20050;-59
2023/05/08 01:58:20;;;;;;;9.02;5.50;;;;;;;;;;5046172;28;20048;-60
2023/05/08 02:00:47;;;;;;;7.85;5.00;;;;;;;;;;5039332;28;20398;-60
2023/05/08 02:03:16;;;;;;;8.40;4.65;;;;;;;;;;5031586;28;20046;-60
2023/05/08 02:05:43;;;;;;;7.53;5.10;;;;;;;;;;5034998;28;20037;-60
2023/05/08 02:08:12;;;;;;;6.85;5.10;;;;;;;;;;5037905;28;20044;-60
2023/05/08 02:10:41;;;;;;;8.18;4.80;;;;;;;;;;5040872;28;20044;-60
2023/05/08 02:13:09;;;;;;;6.43;4.90;;;;;;;;;;5016966;28;20055;-60
2023/05/08 02:15:36;;;;;;;7.38;5.20;;;;;;;;;;5037953;28;20491;-60
2023/05/08 02:18:06;;;;;;;6.47;5.20;;;;;;;;;;5040084;28;20104;-60
2023/05/08 02:20:32;;;;;;;5.88;4.82;;;;;;;;;;5038755;28;20050;-60
2023/05/08 02:22:59;;;;;;;6.88;5.40;;;;;;;;;;5044790;28;20388;-59
2023/05/08 02:25:27;;;;;;;5.85;4.80;;;;;;;;;;5037649;28;20037;-60
2023/05/08 02:27:54;;;;;;;5.35;4.82;;;;;;;;;;5042066;28;20039;-60
2023/05/08 02:30:23;;;;;;;9.60;5.18;;;;;;;;;;5041509;28;20430;-60
2023/05/08 02:32:51;;;;;;;6.97;5.18;;;;;;;;;;5042104;28;20052;-60
2023/05/08 02:35:19;;;;;;;7.70;5.30;;;;;;;;;;5043456;28;20044;-60
2023/05/08 02:37:52;;;;;;;9.10;5.28;;;;;;;;;;5043178;28;20530;-60
2023/05/08 02:40:21;;;;;;;6.00;4.85;;;;;;;;;;5043270;28;20411;-60
2023/05/08 02:42:48;;;;;;;8.32;5.55;;;;;;;;;;5040588;28;20052;-59
2023/05/08 02:45:14;;;;;;;5.93;5.20;;;;;;;;;;5044761;28;20053;-59
2023/05/08 02:47:51;;;;;;;9.77;6.18;;;;;;;;;;5048933;28;20029;-59
2023/05/08 02:50:31;;;;;;;6.97;6.00;;;;;;;;;;5041512;28;20514;-59
2023/05/08 02:53:03;;;;;;;6.97;5.57;;;;;;;;;;5042032;28;20052;-59
2023/05/08 02:55:38;;;;;;;7.07;5.60;;;;;;;;;;5045180;28;20029;-59
2023/05/08 02:58:21;;;;;;;7.22;6.10;;;;;;;;;;5062048;28;20032;-60
2023/05/08 03:01:07;;;;;;;7.18;5.60;;;;;;;;;;5038550;28;20041;-59
2023/05/08 03:03:46;;;;;;;12.88;5.80;;;;;;;;;;5039004;28;20032;-59
2023/05/08 03:06:16;;;;;;;6.22;4.93;;;;;;;;;;5032768;28;20037;-60
2023/05/08 03:08:43;;;;;;;5.70;4.82;;;;;;;;;;5043727;28;20040;-60
2023/05/08 03:11:16;;;;;;;7.22;5.22;;;;;;;;;;5028134;28;20057;-60
2023/05/08 03:13:46;;;;;;;9.77;5.60;;;;;;;;;;5042755;28;20045;-60
2023/05/08 03:16:21;;;;;;;10.63;5.57;;;;;;;;;;5045966;28;20028;-60
2023/05/08 03:18:58;;;;;;;8.32;5.78;;;;;;;;;;5042694;28;20052;-60
2023/05/08 03:21:29;;;;;;;8.85;5.47;;;;;;;;;;5043629;28;20040;-60
2023/05/08 03:23:56;;;;;;;;;;;;;;;;;;5036523;28;20483;-60
2023/05/08 03:26:22;;;;;;;7.93;5.72;;;;;;;;;;5044894;28;19916;-58
2023/05/08 03:28:50;;;;;;;7.57;5.60;;;;;;;;;;5038035;28;20044;-59
2023/05/08 03:31:20;;;;;;;6.20;5.60;;;;;;;;;;5038459;28;20059;-60
2023/05/08 03:33:49;;;;;;;6.30;5.20;;;;;;;;;;5043330;28;20049;-60
2023/05/08 03:36:16;;;;;;;7.72;5.57;;;;;;;;;;5038766;28;20033;-60
2023/05/08 03:38:43;;;;;;;8.40;5.78;;;;;;;;;;5037066;28;20037;-60
2023/05/08 03:41:10;;;;;;;7.95;5.93;;;;;;;;;;5038448;28;20045;-60
2023/05/08 03:43:37;;;;;;;13.13;6.15;;;;;;;;;;5036307;28;20056;-60
2023/05/08 03:46:05;;;;;;;11.20;6.50;;;;;;;;;;5044268;28;20427;-60
2023/05/08 03:48:33;;;;;;;7.03;5.85;;;;;;;;;;5041566;28;20052;-60
2023/05/08 03:51:01;;;;;;;8.90;5.95;;;;;;;;;;5040385;28;20037;-60
2023/05/08 03:53:32;;;;;;;8.75;6.53;;;;;;;;;;5040321;28;20053;-60
2023/05/08 03:55:59;;;;;;;8.15;6.30;;;;;;;;;;5038775;28;20048;-60
2023/05/08 03:58:40;;;;;;;8.25;6.30;;;;;;;;;;5038885;28;20029;-60
2023/05/08 04:01:30;;;;;;;7.25;5.95;;;;;;;;;;5044274;28;20495;-60
2023/05/08 04:04:10;;;;;;;6.43;5.72;;;;;;;;;;5035570;28;20434;-60
2023/05/08 04:06:43;;;;;;;9.13;6.30;;;;;;;;;;5036561;28;20041;-60
2023/05/08 04:09:25;;;;;;;9.07;6.22;;;;;;;;;;5038257;28;20491;-60
2023/05/08 04:12:16;;;;;;;9.40;6.30;;;;;;;;;;5034425;28;20037;-60
2023/05/08 04:14:51;;;;;;;8.18;6.25;;;;;;;;;;5032078;28;20052;-60
2023/05/08 04:17:28;;;;;;;8.02;6.55;;;;;;;;;;5035359;28;20044;-60
2023/05/08 04:20:01;;;;;;;12.82;7.40;;;;;;;;;;5030609;28;20045;-61
2023/05/08 04:22:29;;;;;;;10.13;7.30;;;;;;;;;;5038767;28;20028;-60
2023/05/08 04:24:58;;;;;;;10.65;7.65;;;;;;;;;;5036316;28;20042;-60
2023/05/08 04:27:27;;;;;;;8.77;7.22;;;;;;;;;;5037922;28;20498;-60
2023/05/08 04:29:55;;;;;;;8.27;6.22;;;;;;;;;;5039399;28;20041;-60
2023/05/08 04:32:22;;;;;;;9.63;7.07;;;;;;;;;;5044797;28;20036;-61
2023/05/08 04:34:48;;;;;;;9.10;6.72;;;;;;;;;;5044025;28;20049;-61
2023/05/08 04:37:25;;;;;;;9.82;6.90;;;;;;;;;;5041475;28;20025;-61
2023/05/08 04:39:52;;;;;;;8.55;7.15;;;;;;;;;;5040534;28;20047;-61
2023/05/08 04:42:20;;;;;;;9.95;7.78;;;;;;;;;;5038409;28;20064;-60
2023/05/08 04:44:46;;;;;;;10.00;7.32;;;;;;;;;;5042147;28;20415;-61
2023/05/08 04:47:13;;;;;;;7.82;6.82;;;;;;;;;;5041027;28;20052;-61
2023/05/08 04:49:39;;;;;;;8.15;6.38;;;;;;;;;;5036321;28;20498;-66
2023/05/08 04:52:06;;;;;;;10.07;7.13;;;;;;;;;;5037580;28;20053;-58
2023/05/08 04:54:33;;;;;;;8.55;7.10;;;;;;;;;;5047175;28;20430;-61
2023/05/08 04:56:59;;;;;;;11.23;7.10;;;;;;;;;;5042550;28;20032;-61
2023/05/08 04:59:26;;;;;;;9.45;7.07;;;;;;;;;;5044463;28;20036;-61
2023/05/08 05:01:52;;;;;;;9.60;7.35;;;;;;;;;;5049681;28;20055;-61
2023/05/08 05:04:18;;;;;;;7.80;7.00;;;;;;;;;;5046336;28;20056;-61
2023/05/08 05:06:44;;;;;;;10.52;8.15;;;;;;;;;;5045156;28;20380;-61
2023/05/08 05:09:12;;;;;;;10.73;8.77;;;;;;;;;;5043925;28;20414;-61
2023/05/08 05:11:38;;;;;;;10.68;7.05;;;;;;;;;;5041566;28;20048;-62
2023/05/08 05:14:06;;;;;;;13.82;4.47;;;;;;;;;;5038841;28;20038;-62
2023/05/08 05:16:32;;;;;;;9.70;4.72;;;;;;;;;;5043552;28;20474;-62
2023/05/08 05:18:58;;;;;;;10.63;5.00;;;;;;;;;;5044333;28;20045;-61
2023/05/08 05:21:26;;;;;;;6.32;5.63;;;;;;;;;;5040917;28;20047;-61
2023/05/08 05:23:53;;;;;;;9.07;7.25;;;;;;;;;;5023064;28;20139;-60
2023/05/08 05:26:20;;;;;;;13.23;8.27;;;;;;;;;;5039013;28;20041;-60
2023/05/08 05:28:47;;;;;;;11.45;7.80;;;;;;;;;;5036598;28;20037;-60
2023/05/08 05:31:14;;;;;;;9.25;7.07;;;;;;;;;;5040342;28;20047;-61
2023/05/08 05:33:41;;;;;;;10.73;7.03;;;;;;;;;;5037816;28;20029;-61
2023/05/08 05:36:08;;;;;;;11.93;7.55;;;;;;;;;;5036111;28;20483;-61
2023/05/08 05:38:34;;;;;;;9.23;7.45;;;;;;;;;;5037364;28;20048;-61
2023/05/08 05:41:00;;;;;;;10.15;7.95;;;;;;;;;;5032198;28;20503;-62
2023/05/08 05:43:27;;;;;;;9.57;8.00;;;;;;;;;;5020265;28;20033;-62
2023/05/08 05:45:54;;;;;;;8.60;7.57;;;;;;;;;;5043549;28;20060;-62
2023/05/08 05:48:21;;;;;;;12.07;8.38;;;;;;;;;;5039037;28;20033;-62
2023/05/08 05:50:47;;;;;;;11.25;7.53;;;;;;;;;;5033016;28;20509;-61
2023/05/08 05:53:14;;;;;;;11.75;9.30;;;;;;;;;;5048293;28;20060;-61
2023/05/08 05:55:41;;;;;;;11.93;9.23;;;;;;;;;;5049495;28;20491;-61
2023/05/08 05:58:07;;;;;;;15.55;9.07;;;;;;;;;;5045683;28;20047;-61
2023/05/08 06:00:34;;;;;;;12.63;8.65;;;;;;;;;;5039311;28;20036;-61
2023/05/08 06:03:01;;;;;;;11.93;8.52;;;;;;;;;;5047612;28;20064;-61
2023/05/08 06:05:27;;;;;;;12.77;8.88;;;;;;;;;;5049540;28;20060;-61
2023/05/08 06:07:54;;;;;;;11.00;9.23;;;;;;;;;;5051006;28;20037;-61
2023/05/08 06:10:20;;;;;;;12.57;8.68;;;;;;;;;;5049857;28;20621;-62
2023/05/08 06:12:46;;;;;;;12.98;9.48;;;;;;;;;;5045618;28;20056;-61
2023/05/08 06:15:13;;;;;;;14.43;9.77;;;;;;;;;;5042303;28;20041;-62
2023/05/08 06:17:41;;;;;;;12.32;9.30;;;;;;;;;;5045990;28;20041;-62
2023/05/08 06:20:08;;;;;;;13.73;9.82;;;;;;;;;;5044767;28;20035;-63
2023/05/08 06:22:38;;;;;;;17.63;10.98;;;;;;;;;;5045648;28;20040;-63
2023/05/08 06:25:06;;;;;;;15.07;10.32;;;;;;;;;;5040541;28;20057;-63
2023/05/08 06:27:35;;;;;;;17.98;10.48;;;;;;;;;;5044111;28;20044;-63
2023/05/08 06:30:01;;;;;;;14.57;10.45;;;;;;;;;;5041881;28;20556;-63
2023/05/08 06:32:28;;;;;;;13.55;9.98;;;;;;;;;;5037874;28;20045;-64
2023/05/08 06:34:54;;;;;;;15.55;10.82;;;;;;;;;;5040774;28;20069;-64
2023/05/08 06:37:20;;;;;;;14.10;10.30;;;;;;;;;;5043613;28;20060;-64
2023/05/08 06:39:46;;;;;;;13.70;9.68;;;;;;;;;;5042312;28;20028;-63
2023/05/08 06:42:12;;;;;;;15.90;10.48;;;;;;;;;;5038632;28;20037;-63
2023/05/08 06:44:39;;;;;;;17.60;12.48;;;;;;;;;;5037979;28;20029;-63
2023/05/08 06:47:07;;;;;;;21.23;13.13;;;;;;;;;;5041346;28;20040;-63
2023/05/08 06:49:36;;;;;;;18.08;11.93;;;;;;;;;;5041197;28;20045;-63
2023/05/08 06:52:02;;;;;;;15.18;10.73;;;;;;;;;;5048346;28;20072;-62
2023/05/08 06:54:28;;;;;;;16.52;11.15;;;;;;;;;;5048716;28;20512;-63
2023/05/08 06:56:54;;;;;;;16.92;11.45;;;;;;;;;;5048254;28;20368;-62
2023/05/08 06:59:22;;;;;;;19.10;11.80;;;;;;;;;;5046968;28;20470;-62
2023/05/08 07:01:48;;;;;;;17.33;11.60;;;;;;;;;;5045371;28;20529;-63
2023/05/08 07:04:14;;;;;;;15.07;10.93;;;;;;;;;;5045644;28;20054;-63
2023/05/08 07:06:41;;;;;;;14.93;10.18;;;;;;;;;;5045566;28;20048;-63
2023/05/08 07:09:07;;;;;;;13.98;10.43;;;;;;;;;;5042625;28;20045;-63
2023/05/08 07:11:33;;;;;;;16.35;11.05;;;;;;;;;;5037295;28;20406;-63
2023/05/08 07:13:59;;;;;;;14.13;9.98;;;;;;;;;;5040098;28;20052;-64
2023/05/08 07:16:25;;;;;;;14.60;10.57;;;;;;;;;;5038518;28;20037;-63
2023/05/08 07:18:51;;;;;;;15.52;11.85;;;;;;;;;;5042616;28;20040;-62
2023/05/08 07:21:20;;;;;;;17.95;11.95;;;;;;;;;;5036734;28;20048;-64
2023/05/08 07:23:46;;;;;;;19.85;12.15;;;;;;;;;;5035391;28;20040;-63
2023/05/08 07:26:13;;;;;;;18.75;12.32;;;;;;;;;;5042474;28;20048;-63
2023/05/08 07:28:39;;;;;;;16.40;11.52;;;;;;;;;;5041125;28;20032;-63
2023/05/08 07:31:08;;;;;;;18.63;13.40;;;;;;;;;;5040787;28;20044;-63
2023/05/08 07:33:34;;;;;;;18.33;12.63;;;;;;;;;;5036526;28;20045;-63
2023/05/08 07:36:00;;;;;;;17.58;11.52;;;;;;;;;;5039717;28;20045;-63
2023/05/08 07:38:27;;;;;;;16.42;10.68;;;;;;;;;;5042628;28;20410;-64
2023/05/08 07:40:55;;;;;;;18.88;12.15;;;;;;;;;;5040931;28;20041;-63
2023/05/08 07:43:25;;;;;;;19.08;12.93;;;;;;;;;;5039782;28;20033;-64
2023/05/08 07:45:52;;;;;;;18.70;12.82;;;;;;;;;;5044619;28;20052;-63
2023/05/08 07:48:18;;;;;;;19.77;13.55;;;;;;;;;;5044029;28;20055;-64
2023/05/08 07:50:45;;;;;;;19.73;14.13;;;;;;;;;;5047860;28;20399;-63
2023/05/08 07:53:11;;;;;;;19.50;13.95;;;;;;;;;;5042173;28;20033;-63
2023/05/08 07:55:37;;;;;;;17.17;11.65;;;;;;;;;;5044867;28;20029;-63
2023/05/08 07:58:03;;;;;;;17.45;11.52;;;;;;;;;;5047417;28;20478;-63
2023/05/08 08:00:30;;;;;;;18.42;11.52;;;;;;;;;;5044407;28;20489;-63
2023/05/08 08:02:56;;;;;;;18.40;11.45;;;;;;;;;;5045103;28;20056;-63
2023/05/08 08:05:22;;;;;;;19.40;12.25;;;;;;;;;;5045464;28;20037;-63
2023/05/08 08:07:48;;;;;;;16.70;11.52;;;;;;;;;;5041626;28;20056;-62
2023/05/08 08:10:15;;;;;;;16.67;12.88;;;;;;;;;;5044338;28;20037;-63
2023/05/08 08:12:41;;;;;;;17.65;12.23;;;;;;;;;;5044179;28;20041;-62
2023/05/08 08:15:07;;;;;;;18.02;11.98;;;;;;;;;;5041966;28;20040;-61
2023/05/08 08:17:34;;;;;;;15.93;11.70;;;;;;;;;;5043892;28;20040;-64
2023/05/08 08:20:00;;;;;;;23.90;16.20;;;;;;;;;;5041929;28;20037;-63
2023/05/08 08:22:26;;;;;;;19.02;14.18;;;;;;;;;;5043077;28;20402;-63
2023/05/08 08:24:56;;;;;;;18.40;12.13;;;;;;;;;;5039347;28;20093;-63
2023/05/08 08:27:22;;;;;;;15.73;11.48;;;;;;;;;;5039198;28;20038;-62
2023/05/08 08:29:49;;;;;;;16.45;11.38;;;;;;;;;;5040472;28;20510;-63
2023/05/08 08:32:15;;;;;;;17.20;11.77;;;;;;;;;;5040371;28;20041;-62
2023/05/08 08:34:41;;;;;;;20.42;11.32;;;;;;;;;;5042243;28;20029;-62
2023/05/08 08:37:08;;;;;;;16.17;10.80;;;;;;;;;;5038389;28;20037;-62
2023/05/08 08:39:34;;;;;;;16.77;11.18;;;;;;;;;;5037102;28;20036;-63
2023/05/08 08:42:00;;;;;;;18.50;11.63;;;;;;;;;;5036563;28;20036;-62
2023/05/08 08:44:27;;;;;;;16.83;12.18;;;;;;;;;;5037037;28;20037;-62
2023/05/08 08:46:55;;;;;;;17.33;12.18;;;;;;;;;;5034054;28;20036;-63
2023/05/08 08:49:30;;;;;;;18.67;12.55;;;;;;;;;;5046530;28;20052;-63
2023/05/08 08:52:09;;;;;;;16.77;12.15;;;;;;;;;;5044744;28;20391;-63
2023/05/08 08:54:37;;;;;;;17.95;11.65;;;;;;;;;;5040976;28;20036;-62
2023/05/08 08:57:08;;;;;;;20.20;12.23;;;;;;;;;;5044584;28;20049;-62
2023/05/08 08:59:37;;;;;;;16.50;11.23;;;;;;;;;;5042240;28;20064;-63
2023/05/08 09:02:10;;;;;;;18.55;11.80;;;;;;;;;;5044388;28;20050;-63
2023/05/08 09:04:37;;;;;;;17.17;11.25;;;;;;;;;;5041130;28;20033;-63
2023/05/08 09:07:04;;;;;;;15.88;11.25;;;;;;;;;;5039633;28;20427;-63
2023/05/08 09:09:34;;;;;;;15.30;10.68;;;;;;;;;;5043749;28;20056;-63
2023/05/08 09:12:01;;;;;;;16.45;11.30;;;;;;;;;;5044184;28;20029;-63
2023/05/08 09:14:27;;;;;;;14.15;11.20;;;;;;;;;;5041502;28;20048;-63
2023/05/08 09:16:53;;;;;;;16.83;10.85;;;;;;;;;;5041078;28;20033;-63
2023/05/08 09:19:20;;;;;;;15.35;11.00;;;;;;;;;;5042990;28;20061;-63
2023/05/08 09:21:47;;;;;;;14.85;10.60;;;;;;;;;;5036896;28;20036;-63
2023/05/08 09:24:13;;;;;;;14.13;10.57;;;;;;;;;;5042061;28;20053;-62
2023/05/08 09:26:41;;;;;;;14.25;10.68;;;;;;;;;;5040613;28;20037;-61
2023/05/08 09:29:17;;;;;;;16.67;11.02;;;;;;;;;;5038716;28;20053;-60
2023/05/08 09:31:45;;;;;;;13.88;10.57;;;;;;;;;;5042573;28;20048;-60
2023/05/08 09:34:32;;;;;;;14.63;11.25;;;;;;;;;;5038991;28;20439;-61
2023/05/08 09:37:04;;;;;;;18.33;11.05;;;;;;;;;;5043289;28;20048;-62
2023/05/08 09:39:30;;;;;;;22.27;12.65;;;;;;;;;;5040490;28;20052;-62
2023/05/08 09:42:01;;;;;;;22.75;11.90;;;;;;;;;;5038709;28;20045;-61
2023/05/08 09:44:28;;;;;;;17.27;11.25;;;;;;;;;;5039033;28;20052;-61
2023/05/08 09:47:14;;;;;;;15.48;11.60;;;;;;;;;;5048552;28;20033;-61
2023/05/08 09:49:59;;;;;;;19.27;14.80;;;;;;;;;;5048180;28;20049;-61
2023/05/08 09:52:27;;;;;;;16.35;12.95;;;;;;;;;;5047072;28;20427;-61
2023/05/08 09:54:58;;;;;;;18.20;11.15;;;;;;;;;;5045766;28;20029;-61
2023/05/08 09:57:31;;;;;;;17.15;11.15;;;;;;;;;;5049687;28;20036;-61
2023/05/08 10:00:08;;;;;;;15.20;10.90;;;;;;;;;;5046015;28;20045;-62
2023/05/08 10:02:37;;;;;;;;;;;;;;;;;;5043390;28;20041;-61
2023/05/08 10:05:21;;;;;;;11.88;8.85;;;;;;;;;;5046244;28;20417;-63
2023/05/08 10:07:47;;;;;;;14.18;9.32;;;;;;;;;;5043802;28;20399;-61
2023/05/08 10:10:13;;;;;;;12.38;9.50;;;;;;;;;;5044318;28;20049;-62
2023/05/08 10:12:41;;;;;;;11.65;9.23;;;;;;;;;;5044333;28;20060;-60
2023/05/08 10:15:07;;;;;;;11.18;8.98;;;;;;;;;;5043798;28;20046;-61
2023/05/08 10:18:07;;;;;;;10.60;8.23;;;;;;;;;;5044339;28;20024;-61
2023/05/08 10:20:45;;;;;;;11.52;7.97;;;;;;;;;;5043051;28;20045;-61
2023/05/08 10:23:16;;;;;;;13.32;8.70;;;;;;;;;;5044456;28;20056;-61
2023/05/08 10:25:45;;;;;;;11.07;8.30;;;;;;;;;;5045903;28;20040;-61
2023/05/08 10:28:40;;;;;;;10.05;7.88;;;;;;;;;;5045484;28;20029;-61
2023/05/08 10:31:09;;;;;;;9.85;7.90;;;;;;;;;;5041266;28;20521;-61
2023/05/08 10:33:39;;;;;;;10.70;8.27;;;;;;;;;;5043152;28;20047;-60
2023/05/08 10:36:08;;;;;;;11.77;8.77;;;;;;;;;;5042216;28;20041;-61
2023/05/08 10:38:36;;;;;;;10.93;8.07;;;;;;;;;;5036649;28;20041;-61
2023/05/08 10:41:03;;;;;;;11.95;8.25;;;;;;;;;;5038524;28;20033;-61
2023/05/08 10:43:32;;;;;;;11.90;8.95;;;;;;;;;;5041121;28;20037;-62
2023/05/08 10:46:03;;;;;;;;;;;;;;;;;;5042400;28;20049;-60
2023/05/08 10:48:58;;;;;;;13.27;9.30;;;;;;;;;;5050665;28;19924;-61
2023/05/08 10:51:47;;;;;;;14.93;9.18;;;;;;;;;;5048459;28;20037;-61
2023/05/08 10:54:37;;;;;;;20.10;11.32;;;;;;;;;;5051386;28;20052;-61
2023/05/08 10:57:10;;;;;;;19.50;11.77;;;;;;;;;;5047571;28;20111;-61
2023/05/08 10:59:37;;;;;;;19.45;11.90;;;;;;;;;;5048424;28;20045;-61
2023/05/08 11:02:05;;;;;;;18.88;12.13;;;;;;;;;;5047849;28;20483;-61
2023/05/08 11:04:32;;;;;;;23.15;12.30;;;;;;;;;;5047502;28;20037;-60
2023/05/08 11:06:59;;;;;;;20.77;12.75;;;;;;;;;;5046463;28;20036;-62
2023/05/08 11:09:44;;;;;;;20.65;12.38;;;;;;;;;;5040958;28;20037;-63
2023/05/08 11:12:19;;;;;;;18.83;10.60;;;;;;;;;;5043449;28;20068;-61
2023/05/08 11:15:00;;;;;;;19.20;11.88;;;;;;;;;;5040814;28;20659;-63
2023/05/08 11:17:27;;;;;;;18.52;12.30;;;;;;;;;;5037122;28;20491;-62
2023/05/08 11:20:04;;;;;;;18.08;12.70;;;;;;;;;;5041182;28;20033;-62
2023/05/08 11:22:32;;;;;;;18.45;12.27;;;;;;;;;;5040826;28;20486;-63
2023/05/08 11:25:00;;;;;;;19.27;13.65;;;;;;;;;;5041624;28;20052;-63
2023/05/08 11:27:48;;;;;;;18.58;14.20;;;;;;;;;;5041466;28;20056;-63
2023/05/08 11:30:38;;;;;;;20.85;13.32;;;;;;;;;;5041492;28;20041;-63
2023/05/08 11:33:04;;;;;;;21.73;14.18;;;;;;;;;;5041943;28;20053;-63
2023/05/08 11:35:44;;;;;;;23.33;14.35;;;;;;;;;;5038133;28;20064;-64
2023/05/08 11:38:13;;;;;;;21.10;13.98;;;;;;;;;;5044886;28;20032;-64
2023/05/08 11:40:54;;;;;;;25.58;14.63;;;;;;;;;;5040482;28;20403;-64
2023/05/08 11:43:30;;;;;;;25.45;16.88;;;;;;;;;;5042816;28;20038;-64
2023/05/08 11:46:03;;;;;;;24.80;15.95;;;;;;;;;;5045541;28;20056;-64
2023/05/08 11:48:30;;;;;;;26.00;15.77;;;;;;;;;;5047904;28;20048;-63
2023/05/08 11:50:58;;;;;;;27.58;17.33;;;;;;;;;;5038851;28;20380;-64
2023/05/08 11:53:24;;;;;;;28.73;17.63;;;;;;;;;;5039996;28;20525;-64
2023/05/08 11:55:54;;;;;;;26.15;16.52;;;;;;;;;;5047743;28;20032;-64
2023/05/08 11:58:20;;;;;;;;;;;;;;;;;;5045879;28;20048;-64
2023/05/08 12:00:47;;;;;;;27.08;17.67;;;;;;;;;;5043513;28;20302;-64
2023/05/08 12:03:15;;;;;;;27.23;17.27;;;;;;;;;;5045711;28;20124;-64
2023/05/08 12:05:42;;;;;;;24.45;15.98;;;;;;;;;;5040588;28;20052;-62
2023/05/08 12:08:10;;;;;;;29.98;16.30;;;;;;;;;;5038318;28;20120;-62
2023/05/08 12:10:47;;;;;;;31.98;19.55;;;;;;;;;;5047608;28;20037;-63
2023/05/08 12:13:27;;;;;;;30.15;18.65;;;;;;;;;;5042712;28;20037;-63
2023/05/08 12:15:56;;;;;;;32.78;19.38;;;;;;;;;;5048834;28;20498;-62
2023/05/08 12:18:23;;;;;;;31.02;19.23;;;;;;;;;;5045140;28;20510;-63
2023/05/08 12:20:55;;;;;;;30.15;19.90;;;;;;;;;;5039756;28;20045;-63
2023/05/08 12:23:23;;;;;;;31.55;20.13;;;;;;;;;;5037600;28;20552;-63
2023/05/08 12:25:53;;;;;;;32.88;20.52;;;;;;;;;;5042201;28;20033;-63
2023/05/08 12:28:19;;;;;;;33.20;21.98;;;;;;;;;;5039742;28;20046;-63
2023/05/08 12:30:46;;;;;;;30.75;19.88;;;;;;;;;;5037644;28;20418;-64
2023/05/08 12:33:13;;;;;;;34.78;21.50;;;;;;;;;;5033465;28;20042;-64
2023/05/08 12:35:39;;;;;;;34.45;22.45;;;;;;;;;;5039664;28;20418;-64
2023/05/08 12:38:07;;;;;;;33.42;21.15;;;;;;;;;;5039515;28;20053;-64
2023/05/08 12:40:42;;;;;;;33.88;21.38;;;;;;;;;;5035603;28;20029;-64
2023/05/08 12:43:08;;;;;;;30.92;20.10;;;;;;;;;;5038588;28;20041;-64
2023/05/08 12:45:40;;;;;;;32.25;20.88;;;;;;;;;;5044404;28;20696;-64
2023/05/08 12:48:08;;;;;;;33.45;20.98;;;;;;;;;;5043505;28;20044;-64
2023/05/08 12:50:39;;;;;;;35.35;20.80;;;;;;;;;;5041727;28;20049;-64
2023/05/08 12:53:10;;;;;;;30.58;20.05;;;;;;;;;;5045034;28;20045;-64
2023/05/08 12:55:38;;;;;;;35.15;21.58;;;;;;;;;;5046065;28;20422;-64
2023/05/08 12:58:05;;;;;;;34.60;21.70;;;;;;;;;;5036564;28;20380;-64
2023/05/08 13:00:35;;;;;;;35.63;22.23;;;;;;;;;;5045091;28;20037;-63
2023/05/08 13:03:02;;;;;;;35.50;22.98;;;;;;;;;;5044573;28;20028;-63
2023/05/08 13:05:28;;;;;;;37.05;23.83;;;;;;;;;;5044687;28;20045;-64
2023/05/08 13:07:59;;;;;;;32.83;21.90;;;;;;;;;;5038869;28;20041;-63
2023/05/08 13:10:25;;;;;;;34.63;23.13;;;;;;;;;;5043189;28;20033;-64
2023/05/08 13:12:52;;;;;;;36.72;24.05;;;;;;;;;;5041230;28;20059;-64
2023/05/08 13:15:20;;;;;;;38.08;23.38;;;;;;;;;;5037531;28;20036;-63
2023/05/08 13:17:46;;;;;;;34.95;22.77;;;;;;;;;;5039972;28;20415;-64
2023/05/08 13:20:12;;;;;;;31.00;20.88;;;;;;;;;;5041044;28;20037;-64
2023/05/08 13:22:38;;;;;;;31.67;20.55;;;;;;;;;;5043067;28;20048;-63
2023/05/08 13:25:05;;;;;;;37.92;20.67;;;;;;;;;;5036297;28;20045;-63
2023/05/08 13:27:31;;;;;;;29.17;20.58;;;;;;;;;;5037547;28;20088;-63
2023/05/08 13:29:57;;;;;;;29.25;19.63;;;;;;;;;;5037146;28;20049;-63
2023/05/08 13:32:23;;;;;;;32.10;19.67;;;;;;;;;;5036354;28;20052;-63
2023/05/08 13:34:49;;;;;;;27.80;19.30;;;;;;;;;;5036029;28;20037;-64
2023/05/08 13:37:15;;;;;;;30.90;20.38;;;;;;;;;;5038800;28;20048;-63
2023/05/08 13:39:42;;;;;;;31.73;19.92;;;;;;;;;;5034882;28;20040;-63
2023/05/08 13:42:08;;;;;;;29.42;19.17;;;;;;;;;;5037244;28;20049;-63
2023/05/08 13:44:34;;;;;;;29.38;20.45;;;;;;;;;;5042594;28;20037;-63
2023/05/08 13:47:00;;;;;;;33.42;21.65;;;;;;;;;;5046950;28;20036;-62
2023/05/08 13:49:26;;;;;;;29.83;20.23;;;;;;;;;;5042351;28;20482;-64
2023/05/08 13:51:52;;;;;;;27.55;19.73;;;;;;;;;;5045113;28;20045;-63
2023/05/08 13:54:19;;;;;;;28.98;19.52;;;;;;;;;;5045721;28;20044;-63
2023/05/08 13:56:47;;;;;;;25.88;17.95;;;;;;;;;;5045253;28;20687;-62
2023/05/08 13:59:13;;;;;;;30.25;18.95;;;;;;;;;;5041441;28;20041;-62
2023/05/08 14:01:39;;;;;;;22.33;13.90;;;;;;;;;;5039665;28;20040;-63
2023/05/08 14:04:05;;;;;;;28.73;18.88;;;;;;;;;;5041551;28;20041;-63
2023/05/08 14:06:31;;;;;;;27.08;18.63;;;;;;;;;;5042029;28;20040;-63
2023/05/08 14:08:57;;;;;;;28.70;19.17;;;;;;;;;;5041079;28;20041;-62
2023/05/08 14:11:24;;;;;;;28.60;18.35;;;;;;;;;;5034981;28;20032;-63
2023/05/08 14:13:50;;;;;;;25.27;17.77;;;;;;;;;;5041695;28;20045;-63
2023/05/08 14:16:16;;;;;;;22.63;16.42;;;;;;;;;;5046057;28;20414;-64
2023/05/08 14:18:42;;;;;;;25.17;17.27;;;;;;;;;;5035046;28;20045;-63
2023/05/08 14:21:08;;;;;;;22.88;16.52;;;;;;;;;;5042695;28;20049;-63
2023/05/08 14:23:36;;;;;;;27.23;17.88;;;;;;;;;;5045998;28;20044;-63
2023/05/08 14:26:02;;;;;;;25.35;17.10;;;;;;;;;;5046307;28;20482;-62
2023/05/08 14:28:28;;;;;;;27.48;17.75;;;;;;;;;;5041949;28;20045;-62
2023/05/08 14:30:55;;;;;;;24.08;17.50;;;;;;;;;;5040833;28;20029;-62
2023/05/08 14:33:21;;;;;;;20.08;13.82;;;;;;;;;;5043620;28;20081;-62
2023/05/08 14:35:47;;;;;;;22.08;14.25;;;;;;;;;;5048862;28;20044;-62
2023/05/08 14:38:13;;;;;;;15.88;11.65;;;;;;;;;;5041444;28;20033;-62
2023/05/08 14:40:40;;;;;;;15.82;11.25;;;;;;;;;;5038750;28;20033;-63
2023/05/08 14:43:06;;;;;;;14.95;10.70;;;;;;;;;;5046807;28;20048;-62